sensor_id;sensor_type;location;lat;lon;timestamp;pressure;altitude;pressure_sealevel;temperature;humidity
42761;BME280;31672;47.638;19.026;2023-05-11T00:00:23;100215.06;;;12.18;62.34
42761;BME280;31672;47.638;19.026;2023-05-11T00:05:26;100207.78;;;12.12;62.61
42761;BME280;31672;47.638;19.026;2023-05-11T00:10:29;100209.16;;;12.08;62.90
42761;BME280;31672;47.638;19.026;2023-05-11T00:15:32;100204.53;;;12.01;62.63
42761;BME280;31672;47.638;19.026;2023-05-11T00:20:35;100221.16;;;12.03;62.76
42761;BME280;31672;47.638;19.026;2023-05-11T00:25:38;100212.50;;;12.01;62.64
42761;BME280;31672;47.638;19.026;2023-05-11T00:30:42;100212.31;;;12.03;62.78
42761;BME280;31672;47.638;19.026;2023-05-11T00:35:46;100201.03;;;12.01;62.87
42761;BME280;31672;47.638;19.026;2023-05-11T00:40:51;100199.84;;;12.03;62.31
42761;BME280;31672;47.638;19.026;2023-05-11T00:45:54;100204.16;;;12.04;62.22
42761;BME280;31672;47.638;19.026;2023-05-11T00:51:01;100200.84;;;12.02;61.69
42761;BME280;31672;47.638;19.026;2023-05-11T00:56:05;100193.69;;;12.03;61.45
42761;BME280;31672;47.638;19.026;2023-05-11T01:01:08;100200.50;;;12.05;61.59
42761;BME280;31672;47.638;19.026;2023-05-11T01:06:30;100201.34;;;12.06;61.42
42761;BME280;31672;47.638;19.026;2023-05-11T01:34:21;100207.00;;;11.72;62.60
42761;BME280;31672;47.638;19.026;2023-05-11T01:39:37;100200.06;;;11.63;63.40
42761;BME280;31672;47.638;19.026;2023-05-11T01:44:43;100207.91;;;11.56;63.76
42761;BME280;31672;47.638;19.026;2023-05-11T01:49:51;100205.13;;;11.49;63.75
42761;BME280;31672;47.638;19.026;2023-05-11T01:54:56;100206.63;;;11.44;64.20
42761;BME280;31672;47.638;19.026;2023-05-11T02:00:02;100188.38;;;11.33;63.87
42761;BME280;31672;47.638;19.026;2023-05-11T02:05:08;100189.63;;;11.22;63.48
42761;BME280;31672;47.638;19.026;2023-05-11T02:10:14;100188.97;;;11.12;63.24
42761;BME280;31672;47.638;19.026;2023-05-11T02:15:20;100198.66;;;11.05;64.33
42761;BME280;31672;47.638;19.026;2023-05-11T02:20:24;100184.84;;;11.01;64.50
42761;BME280;31672;47.638;19.026;2023-05-11T02:25:29;100187.34;;;11.03;64.66
42761;BME280;31672;47.638;19.026;2023-05-11T02:30:40;100183.53;;;10.97;64.75
42761;BME280;31672;47.638;19.026;2023-05-11T02:35:46;100179.38;;;10.94;64.86
42761;BME280;31672;47.638;19.026;2023-05-11T02:40:53;100180.06;;;10.88;65.63
42761;BME280;31672;47.638;19.026;2023-05-11T02:46:15;100175.44;;;10.82;65.70
42761;BME280;31672;47.638;19.026;2023-05-11T02:51:23;100168.78;;;10.78;66.66
42761;BME280;31672;47.638;19.026;2023-05-11T02:56:28;100170.28;;;10.72;66.92
42761;BME280;31672;47.638;19.026;2023-05-11T03:01:32;100169.81;;;10.69;67.47
42761;BME280;31672;47.638;19.026;2023-05-11T03:06:36;100159.50;;;10.66;67.38
42761;BME280;31672;47.638;19.026;2023-05-11T03:11:40;100175.81;;;10.63;67.58
42761;BME280;31672;47.638;19.026;2023-05-11T03:16:44;100176.97;;;10.60;67.40
42761;BME280;31672;47.638;19.026;2023-05-11T03:21:50;100173.47;;;10.60;67.65
42761;BME280;31672;47.638;19.026;2023-05-11T03:26:54;100183.47;;;10.58;67.96
42761;BME280;31672;47.638;19.026;2023-05-11T03:31:58;100180.47;;;10.53;68.67
42761;BME280;31672;47.638;19.026;2023-05-11T03:37:04;100178.81;;;10.52;69.37
42761;BME280;31672;47.638;19.026;2023-05-11T03:42:08;100173.81;;;10.49;68.75
42761;BME280;31672;47.638;19.026;2023-05-11T03:47:14;100175.81;;;10.55;68.70
42761;BME280;31672;47.638;19.026;2023-05-11T03:52:20;100178.47;;;10.63;68.79
42761;BME280;31672;47.638;19.026;2023-05-11T03:57:26;100185.59;;;10.70;68.53
42761;BME280;31672;47.638;19.026;2023-05-11T04:02:29;100186.06;;;10.82;68.59
42761;BME280;31672;47.638;19.026;2023-05-11T04:07:33;100193.69;;;10.93;68.32
42761;BME280;31672;47.638;19.026;2023-05-11T04:12:37;100195.66;;;10.99;68.68
42761;BME280;31672;47.638;19.026;2023-05-11T04:17:40;100203.28;;;11.11;68.21
42761;BME280;31672;47.638;19.026;2023-05-11T04:22:43;100207.22;;;11.23;67.92
42761;BME280;31672;47.638;19.026;2023-05-11T04:27:46;100193.72;;;11.33;67.54
42761;BME280;31672;47.638;19.026;2023-05-11T04:32:49;100214.44;;;11.45;66.98
42761;BME280;31672;47.638;19.026;2023-05-11T04:37:52;100214.59;;;11.52;66.62
42761;BME280;31672;47.638;19.026;2023-05-11T04:42:55;100214.72;;;11.59;65.80
42761;BME280;31672;47.638;19.026;2023-05-11T04:47:58;100215.56;;;11.59;65.86
42761;BME280;31672;47.638;19.026;2023-05-11T04:53:01;100221.19;;;11.64;65.52
42761;BME280;31672;47.638;19.026;2023-05-11T04:58:04;100231.78;;;11.72;65.21
42761;BME280;31672;47.638;19.026;2023-05-11T05:03:07;100229.06;;;11.80;65.23
42761;BME280;31672;47.638;19.026;2023-05-11T05:08:10;100227.88;;;11.91;63.77
42761;BME280;31672;47.638;19.026;2023-05-11T05:13:13;100222.16;;;12.02;63.63
42761;BME280;31672;47.638;19.026;2023-05-11T05:18:18;100226.06;;;12.15;63.65
42761;BME280;31672;47.638;19.026;2023-05-11T05:23:21;100233.66;;;12.26;62.87
42761;BME280;31672;47.638;19.026;2023-05-11T05:28:24;100236.63;;;12.31;60.88
42761;BME280;31672;47.638;19.026;2023-05-11T05:33:28;100236.53;;;12.39;60.75
42761;BME280;31672;47.638;19.026;2023-05-11T05:38:31;100234.81;;;12.46;60.44
42761;BME280;31672;47.638;19.026;2023-05-11T05:43:34;100240.91;;;12.55;60.23
42761;BME280;31672;47.638;19.026;2023-05-11T05:48:37;100237.44;;;12.54;59.30
42761;BME280;31672;47.638;19.026;2023-05-11T05:53:40;100240.19;;;12.61;58.91
42761;BME280;31672;47.638;19.026;2023-05-11T05:58:43;100235.28;;;12.73;59.22
42761;BME280;31672;47.638;19.026;2023-05-11T06:03:46;100238.44;;;12.91;59.58
42761;BME280;31672;47.638;19.026;2023-05-11T06:08:50;100243.94;;;13.04;56.70
42761;BME280;31672;47.638;19.026;2023-05-11T06:13:53;100249.56;;;13.09;55.29
42761;BME280;31672;47.638;19.026;2023-05-11T06:18:56;100247.19;;;13.15;54.34
42761;BME280;31672;47.638;19.026;2023-05-11T06:23:59;100244.81;;;13.20;54.37
42761;BME280;31672;47.638;19.026;2023-05-11T06:29:02;100248.78;;;13.24;54.30
42761;BME280;31672;47.638;19.026;2023-05-11T06:34:05;100257.06;;;13.29;53.56
42761;BME280;31672;47.638;19.026;2023-05-11T06:39:11;100254.09;;;13.24;52.92
42761;BME280;31672;47.638;19.026;2023-05-11T06:44:14;100261.75;;;13.27;53.94
42761;BME280;31672;47.638;19.026;2023-05-11T06:49:17;100246.47;;;13.35;53.09
42761;BME280;31672;47.638;19.026;2023-05-11T06:54:20;100253.47;;;13.51;53.76
42761;BME280;31672;47.638;19.026;2023-05-11T06:59:23;100251.88;;;13.72;53.16
42761;BME280;31672;47.638;19.026;2023-05-11T07:04:26;100249.75;;;13.82;52.15
42761;BME280;31672;47.638;19.026;2023-05-11T07:09:31;100240.56;;;13.91;51.32
42761;BME280;31672;47.638;19.026;2023-05-11T07:14:34;100235.91;;;13.93;52.28
42761;BME280;31672;47.638;19.026;2023-05-11T07:19:37;100241.63;;;14.11;51.64
42761;BME280;31672;47.638;19.026;2023-05-11T07:24:40;100240.34;;;14.07;51.54
42761;BME280;31672;47.638;19.026;2023-05-11T07:29:44;100246.97;;;14.11;52.09
42761;BME280;31672;47.638;19.026;2023-05-11T07:34:47;100243.75;;;14.37;51.95
42761;BME280;31672;47.638;19.026;2023-05-11T07:39:50;100235.25;;;14.49;51.91
42761;BME280;31672;47.638;19.026;2023-05-11T07:44:53;100237.28;;;14.75;50.56
42761;BME280;31672;47.638;19.026;2023-05-11T07:49:56;100231.66;;;14.91;50.68
42761;BME280;31672;47.638;19.026;2023-05-11T07:54:59;100227.13;;;15.19;49.91
42761;BME280;31672;47.638;19.026;2023-05-11T08:00:03;100229.88;;;15.33;48.73
42761;BME280;31672;47.638;19.026;2023-05-11T08:05:08;100230.34;;;15.43;49.60
42761;BME280;31672;47.638;19.026;2023-05-11T08:10:11;100237.44;;;15.64;48.61
42761;BME280;31672;47.638;19.026;2023-05-11T08:15:14;100236.91;;;15.82;48.33
42761;BME280;31672;47.638;19.026;2023-05-11T08:20:17;100217.38;;;16.01;49.45
42761;BME280;31672;47.638;19.026;2023-05-11T08:25:20;100217.41;;;16.08;47.79
42761;BME280;31672;47.638;19.026;2023-05-11T08:30:23;100217.41;;;16.14;47.49
42761;BME280;31672;47.638;19.026;2023-05-11T08:35:26;100205.88;;;16.27;48.12
42761;BME280;31672;47.638;19.026;2023-05-11T08:40:30;100195.59;;;16.44;47.93
42761;BME280;31672;47.638;19.026;2023-05-11T08:45:34;100189.38;;;16.63;46.72
42761;BME280;31672;47.638;19.026;2023-05-11T08:50:40;100177.81;;;16.82;48.13
42761;BME280;31672;47.638;19.026;2023-05-11T08:55:45;100169.56;;;16.84;47.17
42761;BME280;31672;47.638;19.026;2023-05-11T09:00:49;100162.88;;;17.13;47.60
42761;BME280;31672;47.638;19.026;2023-05-11T09:05:52;100165.25;;;17.48;46.80
42761;BME280;31672;47.638;19.026;2023-05-11T09:10:55;100154.00;;;17.64;45.51
42761;BME280;31672;47.638;19.026;2023-05-11T09:15:59;100143.16;;;17.84;45.00
42761;BME280;31672;47.638;19.026;2023-05-11T09:21:02;100143.09;;;18.22;44.49
42761;BME280;31672;47.638;19.026;2023-05-11T09:26:19;100136.38;;;18.56;44.04
42761;BME280;31672;47.638;19.026;2023-05-11T09:31:44;100125.00;;;18.79;41.50
42761;BME280;31672;47.638;19.026;2023-05-11T09:36:54;100118.22;;;19.13;40.75
42761;BME280;31672;47.638;19.026;2023-05-11T09:42:20;100122.06;;;19.36;39.35
42761;BME280;31672;47.638;19.026;2023-05-11T09:47:23;100122.31;;;19.16;37.85
42761;BME280;31672;47.638;19.026;2023-05-11T09:52:26;100111.91;;;19.01;38.69
42761;BME280;31672;47.638;19.026;2023-05-11T09:57:30;100118.41;;;19.12;37.95
42761;BME280;31672;47.638;19.026;2023-05-11T10:02:33;100104.09;;;19.30;37.98
42761;BME280;31672;47.638;19.026;2023-05-11T10:07:36;100106.16;;;18.97;37.75
42761;BME280;31672;47.638;19.026;2023-05-11T10:12:41;100104.19;;;19.23;38.38
42761;BME280;31672;47.638;19.026;2023-05-11T10:17:44;100111.41;;;19.41;35.68
42761;BME280;31672;47.638;19.026;2023-05-11T10:22:51;100088.50;;;19.50;35.94
42761;BME280;31672;47.638;19.026;2023-05-11T10:27:56;100089.78;;;19.77;35.55
42761;BME280;31672;47.638;19.026;2023-05-11T10:33:00;100077.84;;;19.97;35.07
42761;BME280;31672;47.638;19.026;2023-05-11T10:38:05;100077.66;;;20.22;32.76
42761;BME280;31672;47.638;19.026;2023-05-11T11:04:49;100054.41;;;20.44;32.11
42761;BME280;31672;47.638;19.026;2023-05-11T11:10:00;100055.16;;;20.40;31.07
42761;BME280;31672;47.638;19.026;2023-05-11T11:15:07;100043.47;;;20.86;31.02
42761;BME280;31672;47.638;19.026;2023-05-11T11:20:50;100033.75;;;21.14;29.45
42761;BME280;31672;47.638;19.026;2023-05-11T11:25:54;100035.09;;;21.28;30.25
42761;BME280;31672;47.638;19.026;2023-05-11T11:31:27;100040.19;;;20.84;30.24
42761;BME280;31672;47.638;19.026;2023-05-11T11:42:10;100034.59;;;20.50;29.43
42761;BME280;31672;47.638;19.026;2023-05-11T12:02:43;100018.88;;;20.24;30.10
42761;BME280;31672;47.638;19.026;2023-05-11T12:07:50;100017.13;;;20.41;29.83
42761;BME280;31672;47.638;19.026;2023-05-11T12:12:53;100021.56;;;20.71;29.81
42761;BME280;31672;47.638;19.026;2023-05-11T12:18:01;100014.88;;;20.62;29.31
42761;BME280;31672;47.638;19.026;2023-05-11T12:23:05;100004.75;;;20.69;30.47
42761;BME280;31672;47.638;19.026;2023-05-11T12:28:12;100007.84;;;20.61;31.33
42761;BME280;31672;47.638;19.026;2023-05-11T12:33:14;100004.19;;;20.55;30.84
42761;BME280;31672;47.638;19.026;2023-05-11T12:38:18;99994.09;;;20.39;31.59
42761;BME280;31672;47.638;19.026;2023-05-11T12:43:22;99991.66;;;20.37;31.79
42761;BME280;31672;47.638;19.026;2023-05-11T12:48:25;99993.16;;;20.45;31.54
42761;BME280;31672;47.638;19.026;2023-05-11T12:53:34;99994.13;;;20.27;31.82
42761;BME280;31672;47.638;19.026;2023-05-11T12:58:40;99983.13;;;20.05;31.39
42761;BME280;31672;47.638;19.026;2023-05-11T13:03:45;99985.00;;;19.93;33.02
42761;BME280;31672;47.638;19.026;2023-05-11T13:08:49;99974.22;;;20.04;31.94
42761;BME280;31672;47.638;19.026;2023-05-11T13:13:55;99966.00;;;20.11;31.72
42761;BME280;31672;47.638;19.026;2023-05-11T13:19:04;99968.06;;;20.32;32.50
42761;BME280;31672;47.638;19.026;2023-05-11T13:24:19;99959.34;;;20.66;32.46
42761;BME280;31672;47.638;19.026;2023-05-11T13:29:23;99948.41;;;20.72;31.60
42761;BME280;31672;47.638;19.026;2023-05-11T13:34:26;99948.72;;;20.47;31.90
42761;BME280;31672;47.638;19.026;2023-05-11T13:39:29;99943.19;;;20.42;32.18
42761;BME280;31672;47.638;19.026;2023-05-11T13:44:34;99939.56;;;20.48;31.81
42761;BME280;31672;47.638;19.026;2023-05-11T13:49:37;99926.25;;;20.70;32.38
42761;BME280;31672;47.638;19.026;2023-05-11T13:54:40;99931.59;;;20.99;30.68
42761;BME280;31672;47.638;19.026;2023-05-11T13:59:43;99923.44;;;20.94;29.46
42761;BME280;31672;47.638;19.026;2023-05-11T14:04:46;99918.09;;;20.82;29.65
42761;BME280;31672;47.638;19.026;2023-05-11T14:09:50;99918.34;;;20.97;30.35
42761;BME280;31672;47.638;19.026;2023-05-11T14:14:53;99908.56;;;21.08;30.03
42761;BME280;31672;47.638;19.026;2023-05-11T14:19:56;99904.84;;;21.43;28.77
42761;BME280;31672;47.638;19.026;2023-05-11T14:24:59;99910.44;;;21.07;28.39
42761;BME280;31672;47.638;19.026;2023-05-11T14:30:05;99908.00;;;20.77;28.75
42761;BME280;31672;47.638;19.026;2023-05-11T14:35:08;99904.38;;;20.72;29.22
42761;BME280;31672;47.638;19.026;2023-05-11T14:40:11;99903.63;;;20.60;29.12
42761;BME280;31672;47.638;19.026;2023-05-11T14:45:15;99906.47;;;20.41;29.71
42761;BME280;31672;47.638;19.026;2023-05-11T14:50:19;99897.84;;;20.27;30.19
42761;BME280;31672;47.638;19.026;2023-05-11T14:55:21;99894.19;;;20.34;30.04
42761;BME280;31672;47.638;19.026;2023-05-11T15:00:24;99894.50;;;20.37;29.80
42761;BME280;31672;47.638;19.026;2023-05-11T15:05:28;99895.41;;;20.54;29.94
42761;BME280;31672;47.638;19.026;2023-05-11T15:10:31;99888.84;;;20.50;30.06
42761;BME280;31672;47.638;19.026;2023-05-11T15:15:35;99894.56;;;20.66;29.96
42761;BME280;31672;47.638;19.026;2023-05-11T15:20:39;99895.31;;;20.78;29.90
42761;BME280;31672;47.638;19.026;2023-05-11T15:25:42;99903.25;;;20.56;30.36
42761;BME280;31672;47.638;19.026;2023-05-11T15:30:47;99903.19;;;20.39;30.96
42761;BME280;31672;47.638;19.026;2023-05-11T15:35:50;99894.34;;;20.03;30.96
42761;BME280;31672;47.638;19.026;2023-05-11T15:40:53;99901.41;;;19.81;30.89
42761;BME280;31672;47.638;19.026;2023-05-11T15:45:57;99898.72;;;19.69;31.71
42761;BME280;31672;47.638;19.026;2023-05-11T15:51:01;99909.88;;;19.61;31.34
42761;BME280;31672;47.638;19.026;2023-05-11T15:56:05;99908.88;;;19.56;32.02
42761;BME280;31672;47.638;19.026;2023-05-11T16:01:07;99910.03;;;19.48;31.75
42761;BME280;31672;47.638;19.026;2023-05-11T16:06:11;99908.50;;;19.40;32.31
42761;BME280;31672;47.638;19.026;2023-05-11T16:11:14;99915.88;;;19.33;32.84
42761;BME280;31672;47.638;19.026;2023-05-11T16:16:17;99916.81;;;19.27;32.83
42761;BME280;31672;47.638;19.026;2023-05-11T16:21:22;99910.72;;;19.20;33.27
42761;BME280;31672;47.638;19.026;2023-05-11T16:26:26;99909.38;;;19.11;33.49
42761;BME280;31672;47.638;19.026;2023-05-11T16:31:29;99918.88;;;19.02;34.03
42761;BME280;31672;47.638;19.026;2023-05-11T16:36:33;99924.94;;;18.97;34.16
42761;BME280;31672;47.638;19.026;2023-05-11T16:41:36;99930.84;;;18.87;35.16
42761;BME280;31672;47.638;19.026;2023-05-11T16:46:39;99938.66;;;18.77;35.78
42761;BME280;31672;47.638;19.026;2023-05-11T16:51:42;99938.59;;;18.65;35.90
42761;BME280;31672;47.638;19.026;2023-05-11T16:56:45;99945.91;;;18.58;36.04
42761;BME280;31672;47.638;19.026;2023-05-11T17:01:49;99940.19;;;18.55;36.64
42761;BME280;31672;47.638;19.026;2023-05-11T17:06:56;99945.63;;;18.48;36.98
42761;BME280;31672;47.638;19.026;2023-05-11T17:11:59;99955.28;;;18.37;38.51
42761;BME280;31672;47.638;19.026;2023-05-11T17:17:02;99958.41;;;18.16;39.90
42761;BME280;31672;47.638;19.026;2023-05-11T17:22:06;99962.88;;;18.04;40.65
42761;BME280;31672;47.638;19.026;2023-05-11T17:27:10;99960.91;;;17.92;40.06
42761;BME280;31672;47.638;19.026;2023-05-11T17:32:13;99960.38;;;17.84;40.14
42761;BME280;31672;47.638;19.026;2023-05-11T17:37:16;99971.19;;;17.77;40.86
42761;BME280;31672;47.638;19.026;2023-05-11T17:42:33;99971.47;;;17.62;42.40
42761;BME280;31672;47.638;19.026;2023-05-11T17:47:36;99973.06;;;17.45;43.16
42761;BME280;31672;47.638;19.026;2023-05-11T17:52:40;99985.53;;;17.33;43.50
42761;BME280;31672;47.638;19.026;2023-05-11T17:57:44;99991.50;;;17.10;43.87
42761;BME280;31672;47.638;19.026;2023-05-11T18:02:47;100000.69;;;16.89;44.54
42761;BME280;31672;47.638;19.026;2023-05-11T18:07:51;100009.19;;;16.73;44.70
42761;BME280;31672;47.638;19.026;2023-05-11T18:12:54;100017.50;;;16.58;45.45
42761;BME280;31672;47.638;19.026;2023-05-11T18:17:57;100022.25;;;16.43;45.74
42761;BME280;31672;47.638;19.026;2023-05-11T18:23:02;100034.66;;;16.30;45.91
42761;BME280;31672;47.638;19.026;2023-05-11T18:28:05;100033.25;;;16.21;46.09
42761;BME280;31672;47.638;19.026;2023-05-11T18:33:08;100048.72;;;16.13;45.81
42761;BME280;31672;47.638;19.026;2023-05-11T18:38:14;100061.09;;;16.07;46.33
42761;BME280;31672;47.638;19.026;2023-05-11T18:43:18;100066.66;;;15.99;46.59
42761;BME280;31672;47.638;19.026;2023-05-11T18:48:21;100075.09;;;15.83;46.35
42761;BME280;31672;47.638;19.026;2023-05-11T18:53:24;100090.13;;;15.70;46.72
42761;BME280;31672;47.638;19.026;2023-05-11T18:58:28;100103.69;;;15.56;46.50
42761;BME280;31672;47.638;19.026;2023-05-11T19:03:31;100111.91;;;15.47;47.05
42761;BME280;31672;47.638;19.026;2023-05-11T19:08:38;100118.03;;;15.35;47.20
42761;BME280;31672;47.638;19.026;2023-05-11T19:13:41;100123.94;;;15.17;47.87
42761;BME280;31672;47.638;19.026;2023-05-11T19:18:45;100131.50;;;15.00;48.46
42761;BME280;31672;47.638;19.026;2023-05-11T19:23:48;100134.06;;;14.87;49.24
42761;BME280;31672;47.638;19.026;2023-05-11T19:28:51;100143.28;;;14.78;50.07
42761;BME280;31672;47.638;19.026;2023-05-11T19:33:58;100155.34;;;14.67;50.88
42761;BME280;31672;47.638;19.026;2023-05-11T19:39:02;100153.00;;;14.57;51.58
42761;BME280;31672;47.638;19.026;2023-05-11T19:44:06;100160.91;;;14.44;52.66
42761;BME280;31672;47.638;19.026;2023-05-11T19:49:10;100166.38;;;14.29;53.91
42761;BME280;31672;47.638;19.026;2023-05-11T19:54:13;100174.31;;;14.23;54.57
42761;BME280;31672;47.638;19.026;2023-05-11T19:59:17;100175.72;;;13.97;57.08
42761;BME280;31672;47.638;19.026;2023-05-11T20:04:21;100174.22;;;13.73;59.68
42761;BME280;31672;47.638;19.026;2023-05-11T20:09:24;100179.63;;;13.58;60.05
42761;BME280;31672;47.638;19.026;2023-05-11T20:14:28;100186.91;;;13.50;61.42
42761;BME280;31672;47.638;19.026;2023-05-11T20:19:31;100184.53;;;13.40;62.33
42761;BME280;31672;47.638;19.026;2023-05-11T20:24:34;100186.28;;;13.33;63.15
42761;BME280;31672;47.638;19.026;2023-05-11T20:29:38;100191.91;;;13.23;63.71
42761;BME280;31672;47.638;19.026;2023-05-11T20:34:42;100185.00;;;13.14;64.39
42761;BME280;31672;47.638;19.026;2023-05-11T20:39:45;100188.94;;;13.03;65.06
42761;BME280;31672;47.638;19.026;2023-05-11T20:44:49;100184.06;;;12.92;66.03
42761;BME280;31672;47.638;19.026;2023-05-11T20:49:53;100188.75;;;12.90;66.15
42761;BME280;31672;47.638;19.026;2023-05-11T20:54:56;100187.28;;;12.88;67.15
42761;BME280;31672;47.638;19.026;2023-05-11T20:59:59;100192.81;;;12.86;67.66
42761;BME280;31672;47.638;19.026;2023-05-11T21:05:07;100191.88;;;12.79;67.88
42761;BME280;31672;47.638;19.026;2023-05-11T21:10:11;100200.03;;;12.77;68.68
42761;BME280;31672;47.638;19.026;2023-05-11T21:15:14;100188.94;;;12.74;69.13
42761;BME280;31672;47.638;19.026;2023-05-11T21:20:18;100190.66;;;12.67;70.18
42761;BME280;31672;47.638;19.026;2023-05-11T21:25:22;100191.56;;;12.59;70.67
42761;BME280;31672;47.638;19.026;2023-05-11T21:30:25;100187.31;;;12.50;71.41
42761;BME280;31672;47.638;19.026;2023-05-11T21:35:28;100200.97;;;12.32;72.15
42761;BME280;31672;47.638;19.026;2023-05-11T21:40:32;100202.50;;;12.26;73.07
42761;BME280;31672;47.638;19.026;2023-05-11T21:45:35;100207.22;;;12.16;73.61
42761;BME280;31672;47.638;19.026;2023-05-11T21:50:38;100205.25;;;12.18;73.79
42761;BME280;31672;47.638;19.026;2023-05-11T21:55:41;100202.72;;;12.17;74.42
42761;BME280;31672;47.638;19.026;2023-05-11T22:00:44;100192.25;;;12.15;74.47
42761;BME280;31672;47.638;19.026;2023-05-11T22:05:48;100202.38;;;12.20;74.54
42761;BME280;31672;47.638;19.026;2023-05-11T22:10:51;100197.06;;;12.20;74.36
42761;BME280;31672;47.638;19.026;2023-05-11T22:15:54;100201.59;;;12.11;74.81
42761;BME280;31672;47.638;19.026;2023-05-11T22:20:57;100196.28;;;12.11;75.08
42761;BME280;31672;47.638;19.026;2023-05-11T22:26:01;100201.75;;;12.18;74.75
42761;BME280;31672;47.638;19.026;2023-05-11T22:31:04;100204.03;;;12.21;74.82
42761;BME280;31672;47.638;19.026;2023-05-11T22:36:10;100201.38;;;12.21;75.01
42761;BME280;31672;47.638;19.026;2023-05-11T22:41:13;100210.00;;;12.23;75.01
42761;BME280;31672;47.638;19.026;2023-05-11T22:46:16;100204.88;;;12.21;75.41
42761;BME280;31672;47.638;19.026;2023-05-11T22:51:19;100204.69;;;12.23;75.30
42761;BME280;31672;47.638;19.026;2023-05-11T22:56:22;100201.09;;;12.16;76.04
42761;BME280;31672;47.638;19.026;2023-05-11T23:01:28;100207.72;;;12.20;76.46
42761;BME280;31672;47.638;19.026;2023-05-11T23:06:31;100209.38;;;12.21;76.24
42761;BME280;31672;47.638;19.026;2023-05-11T23:11:34;100202.91;;;12.15;76.63
42761;BME280;31672;47.638;19.026;2023-05-11T23:16:37;100203.09;;;12.14;76.58
42761;BME280;31672;47.638;19.026;2023-05-11T23:21:40;100199.97;;;12.10;76.81
42761;BME280;31672;47.638;19.026;2023-05-11T23:26:43;100204.47;;;12.10;76.39
42761;BME280;31672;47.638;19.026;2023-05-11T23:31:46;100201.16;;;12.08;77.01
42761;BME280;31672;47.638;19.026;2023-05-11T23:36:50;100199.31;;;12.08;77.36
42761;BME280;31672;47.638;19.026;2023-05-11T23:41:53;100196.47;;;12.10;77.22
42761;BME280;31672;47.638;19.026;2023-05-11T23:46:56;100200.97;;;12.09;77.44
42761;BME280;31672;47.638;19.026;2023-05-11T23:52:00;100195.31;;;12.12;77.72
42761;BME280;31672;47.638;19.026;2023-05-11T23:57:03;100198.59;;;12.14;77.80
